Time;durP1;ratioP1;P1;durP2;ratioP2;P2;SDS_P1;SDS_P2;PMS_P1;PMS_P2;Temp;Humidity;BMP_temperature;BMP_pressure;BME280_temperature;BME280_humidity;BME280_pressure;Samples;Min_cycle;Max_cycle;Signal;HPM_P1;HPM_P2
2021/03/09 06:25:04;;;;;;;;;;;;;;;5.98;37.30;101820.31;4747589;30;19965;-75
2021/03/09 06:27:56;;;;;;;;;;;;;;;6.08;36.78;101823.91;4797866;29;19952;-77
2021/03/09 06:30:41;;;;;;;;;;;;;;;6.22;36.53;101825.78;4806700;29;19929;-76
2021/03/09 06:33:26;;;;;;;;;;;;;;;6.33;36.74;101816.22;4802116;29;19937;-76
2021/03/09 06:35:53;;;;;;;;;;;;;;;6.40;36.31;101807.50;4796309;29;20552;-74
2021/03/09 06:38:22;;;;;;;;;;;;;;;6.60;36.06;101817.28;4813234;29;19943;-78
2021/03/09 06:41:06;;;;;;;;;;;;;;;6.75;35.68;101825.25;4812235;29;19988;-77
2021/03/09 06:52:37;;;;;;;;;;;;;;;7.32;35.04;101822.88;4705132;30;19937;-79
2021/03/09 07:02:48;;;;;;;;;;;;;;;7.80;34.67;101825.63;4803054;29;21606;-74
2021/03/09 07:05:19;;;;;;;;;;;;;;;7.88;34.54;101828.28;4807031;29;19947;-75
2021/03/09 07:07:46;;;;;;;;;;;;;;;7.98;34.31;101823.88;4804564;29;20753;-74
2021/03/09 07:10:13;;;;;;;;;;;;;;;8.01;34.27;101823.00;4804593;29;20516;-71
2021/03/09 07:12:41;;;;;;;;;;;;;;;8.00;34.43;101821.22;4801672;29;20663;-73
2021/03/09 07:15:10;;;;;;;;;;;;;;;7.92;34.58;101824.75;4820488;29;20444;-74
2021/03/09 07:17:38;;;;;;;;;;;;;;;7.91;34.78;101830.03;4840996;29;19936;-73
2021/03/09 07:20:06;;;;;;;;;;;;;;;7.97;34.86;101827.38;4828045;29;19944;-72
2021/03/09 07:22:51;;;;;;;;;;;;;;;8.02;34.70;101824.75;4845250;29;20015;-73
2021/03/09 07:25:18;;;;;;;;;;;;;;;8.06;34.68;101826.53;4838937;29;20356;-73
2021/03/09 07:27:51;;;;;;;;;;;;;;;8.07;34.77;101828.28;4840823;29;19960;-74
2021/03/09 07:30:18;;;;;;;;;;;;;;;8.06;34.46;101831.78;4829696;29;20369;-74
2021/03/09 07:32:47;;;;;;;;;;;;;;;8.17;34.67;101824.78;4847374;29;19936;-74
2021/03/09 07:35:15;;;;;;;;;;;;;;;8.33;33.85;101833.53;4847052;29;19960;-73
2021/03/09 07:37:43;;;;;;;;;;;;;;;8.48;34.17;101832.66;4844510;29;20496;-73
2021/03/09 07:40:13;;;;;;;;;;;;;;;8.71;33.62;101837.06;4840369;29;20243;-73
2021/03/09 07:42:40;;;;;;;;;;;;;;;8.98;32.78;101830.78;4827440;29;20494;-74
2021/03/09 07:45:10;;;;;;;;;;;;;;;9.20;32.27;101836.88;4845374;29;19932;-74
2021/03/09 07:47:40;;;;;;;;;;;;;;;9.43;32.52;101833.25;4848811;29;20004;-73
2021/03/09 07:50:07;;;;;;;;;;;;;;;9.57;32.12;101831.44;4844941;29;19932;-74
2021/03/09 07:52:34;;;;;;;;;;;;;;;9.74;32.25;101833.06;4832602;29;19939;-73
2021/03/09 07:55:18;;;;;;;;;;;;;;;9.89;31.70;101830.31;4846131;29;19943;-74
2021/03/09 07:57:44;;;;;;;;;;;;;;;10.07;31.45;101823.13;4847335;29;20084;-74
2021/03/09 08:00:12;;;;;;;;;;;;;;;10.23;31.41;101827.41;4855830;29;19987;-74
2021/03/09 08:02:39;;;;;;;;;;;;;;;10.35;31.57;101821.16;4860220;29;19932;-74
2021/03/09 08:05:05;;;;;;;;;;;;;;;10.54;30.82;101821.84;4844556;29;20303;-74
2021/03/09 08:07:45;;;;;;;;;;;;;;;10.73;31.09;101814.63;4855145;29;19939;-74
2021/03/09 08:10:33;;;;;;;;;;;;;;;11.02;30.54;101817.78;4843722;29;19945;-74
2021/03/09 08:13:16;;;;;;;;;;;;;;;11.36;29.87;101823.56;4830843;29;19972;-74
2021/03/09 08:15:44;;;;;;;;;;;;;;;11.63;29.78;101821.41;4834294;29;20417;-73
2021/03/09 08:18:25;;;;;;;;;;;;;;;11.91;29.50;101821.88;4847746;29;19936;-74
2021/03/09 08:20:53;;;;;;;;;;;;;;;12.20;29.12;101814.34;4844812;29;20860;-73
2021/03/09 08:23:38;;;;;;;;;;;;;;;12.47;28.86;101809.47;4846575;29;20033;-73
2021/03/09 08:26:07;;;;;;;;;;;;;;;12.79;28.62;101814.16;4840203;29;19932;-74
2021/03/09 08:28:51;;;;;;;;;;;;;;;13.15;28.08;101811.66;4849260;29;19944;-73
2021/03/09 08:31:26;;;;;;;;;;;;;;;13.51;27.63;101811.78;4850527;29;19937;-73
2021/03/09 08:34:14;;;;;;;;;;;;;;;13.87;27.48;101803.88;4848495;29;19943;-74
2021/03/09 08:36:41;;;;;;;;;;;;;;;14.26;26.86;101798.47;4829455;29;20030;-74
2021/03/09 08:39:12;;;;;;;;;;;;;;;14.60;26.83;101800.22;4848857;29;19929;-74
2021/03/09 08:41:58;;;;;;;;;;;;;;;14.93;26.27;101807.31;4852173;29;19928;-73
2021/03/09 08:44:25;;;;;;;;;;;;;;;15.33;25.86;101811.47;4846969;29;19967;-74
2021/03/09 08:46:56;;;;;;;;;;;;;;;15.65;25.73;101800.72;4850256;29;19937;-74
2021/03/09 08:49:42;;;;;;;;;;;;;;;16.08;25.08;101799.34;4844331;29;22853;-73
2021/03/09 08:52:09;;;;;;;;;;;;;;;16.59;24.65;101792.25;4845675;29;19932;-74
2021/03/09 08:54:38;;;;;;;;;;;;;;;16.92;24.27;101790.16;4848075;29;19992;-73
2021/03/09 08:57:07;;;;;;;;;;;;;;;17.36;23.91;101784.03;4851440;29;19961;-73
2021/03/09 08:59:34;;;;;;;;;;;;;;;17.83;23.43;101784.84;4850361;29;19976;-74
2021/03/09 09:02:09;;;;;;;;;;;;;;;18.15;23.09;101785.31;4848701;29;20404;-74
2021/03/09 09:04:37;;;;;;;;;;;;;;;18.72;22.60;101793.53;4853481;29;19932;-74
2021/03/09 09:07:22;;;;;;;;;;;;;;;19.20;22.14;101791.38;4846162;29;20046;-74
2021/03/09 09:09:50;;;;;;;;;;;;;;;19.52;22.18;101784.47;4841194;29;19978;-74
2021/03/09 09:12:27;;;;;;;;;;;;;;;20.05;21.69;101784.59;4844993;29;19961;-74
2021/03/09 09:15:01;;;;;;;;;;;;;;;20.49;21.17;101792.16;4843224;29;19932;-75
2021/03/09 09:17:29;;;;;;;;;;;;;;;20.86;20.71;101789.34;4844594;29;19936;-74
2021/03/09 09:19:57;;;;;;;;;;;;;;;21.38;20.23;101791.00;4847774;29;19936;-74
2021/03/09 09:22:24;;;;;;;;;;;;;;;22.40;19.21;101778.81;4847624;29;19936;-74
2021/03/09 09:24:55;;;;;;;;;;;;;;;26.58;14.76;101742.50;4848876;29;19940;-74
2021/03/09 09:27:22;;;;;;;;;;;;;;;28.62;12.64;101739.94;4846419;29;19932;-74
2021/03/09 09:29:53;;;;;;;;;;;;;;;29.39;12.14;101743.09;4842343;29;19943;-75
2021/03/09 09:32:21;;;;;;;;;;;;;;;30.20;11.14;101741.91;4859996;29;19967;-75
2021/03/09 09:34:56;;;;;;;;;;;;;;;30.97;10.96;101750.00;4851853;29;19932;-75
2021/03/09 09:37:23;;;;;;;;;;;;;;;31.43;10.25;101748.13;4850118;29;19936;-72
2021/03/09 09:39:50;;;;;;;;;;;;;;;31.69;10.13;101747.38;4850221;29;19939;-74
2021/03/09 09:42:18;;;;;;;;;;;;;;;32.04;9.86;101756.53;4842266;29;21539;-75
2021/03/09 09:44:46;;;;;;;;;;;;;;;32.63;9.54;101757.81;4828127;29;19952;-75
2021/03/09 09:47:14;;;;;;;;;;;;;;;32.81;9.48;101760.47;4833394;29;19932;-74
2021/03/09 09:49:45;;;;;;;;;;;;;;;33.03;9.37;101759.91;4849611;29;20117;-75
2021/03/09 09:52:13;;;;;;;;;;;;;;;33.35;9.25;101761.03;4848689;29;19933;-74
2021/03/09 09:54:41;;;;;;;;;;;;;;;33.54;9.03;101762.63;4843729;29;19936;-74
2021/03/09 09:57:09;;;;;;;;;;;;;;;33.93;8.85;101769.34;4825571;29;20280;-74
2021/03/09 09:59:36;;;;;;;;;;;;;;;34.64;8.72;101772.31;4846331;29;19936;-75
2021/03/09 10:02:20;;;;;;;;;;;;;;;33.86;9.12;101771.91;4849439;29;19932;-74
2021/03/09 10:04:50;;;;;;;;;;;;;;;34.63;8.80;101772.50;4848787;29;19944;-74
2021/03/09 10:07:19;;;;;;;;;;;;;;;34.98;8.04;101771.19;4831550;29;19932;-75
2021/03/09 10:09:59;;;;;;;;;;;;;;;34.95;8.54;101762.44;4843287;29;20471;-74
2021/03/09 10:12:43;;;;;;;;;;;;;;;35.05;8.63;101765.81;4841759;29;20413;-74
2021/03/09 10:15:10;;;;;;;;;;;;;;;34.32;9.12;101773.28;4848699;29;19940;-74
2021/03/09 10:17:37;;;;;;;;;;;;;;;33.49;10.00;101778.72;4831362;29;19939;-74
2021/03/09 10:20:17;;;;;;;;;;;;;;;33.05;10.27;101774.28;4847069;29;20015;-75
2021/03/09 10:22:45;;;;;;;;;;;;;;;32.24;11.10;101781.00;4843195;29;21615;-74
2021/03/09 10:25:13;;;;;;;;;;;;;;;30.89;11.73;101775.31;4848272;29;19943;-74
2021/03/09 10:27:40;;;;;;;;;;;;;;;31.23;11.87;101782.06;4847831;29;19963;-74
2021/03/09 10:30:07;;;;;;;;;;;;;;;29.28;13.64;101784.94;4844675;29;19928;-74
2021/03/09 10:32:48;;;;;;;;;;;;;;;29.04;13.85;101777.09;4846748;29;19928;-73
2021/03/09 10:35:15;;;;;;;;;;;;;;;27.56;15.60;101787.13;4849006;29;19964;-74
2021/03/09 10:37:42;;;;;;;;;;;;;;;27.97;15.12;101789.06;4840489;29;20034;-73
2021/03/09 10:40:11;;;;;;;;;;;;;;;27.80;15.07;101785.06;4842133;29;20040;-74
2021/03/09 10:42:39;;;;;;;;;;;;;;;28.30;14.64;101776.31;4834864;29;19963;-74
2021/03/09 10:45:20;;;;;;;;;;;;;;;28.76;14.31;101775.97;4846261;29;20031;-74
2021/03/09 10:47:50;;;;;;;;;;;;;;;28.92;14.05;101778.19;4846383;29;19936;-73
2021/03/09 10:50:19;;;;;;;;;;;;;;;28.23;14.84;101785.13;4846706;29;19936;-73
2021/03/09 10:52:46;;;;;;;;;;;;;;;28.22;14.89;101786.13;4837982;29;19932;-73
2021/03/09 10:55:14;;;;;;;;;;;;;;;28.89;14.17;101781.19;4843072;29;20569;-73
2021/03/09 10:57:41;;;;;;;;;;;;;;;29.16;13.82;101780.56;4844298;29;20034;-73
2021/03/09 11:00:08;;;;;;;;;;;;;;;28.48;14.74;101781.13;4846586;29;19936;-75
2021/03/09 11:02:35;;;;;;;;;;;;;;;28.22;14.91;101780.69;4847883;29;19936;-74
2021/03/09 11:05:03;;;;;;;;;;;;;;;28.20;15.02;101779.97;4845253;29;19942;-75
2021/03/09 11:07:30;;;;;;;;;;;;;;;27.83;15.34;101782.06;4844512;29;20016;-75
2021/03/09 11:09:57;;;;;;;;;;;;;;;28.87;14.31;101775.91;4845404;29;20003;-75
2021/03/09 11:12:25;;;;;;;;;;;;;;;29.52;14.02;101777.38;4851190;29;19936;-75
2021/03/09 11:14:52;;;;;;;;;;;;;;;29.83;13.79;101775.38;4849765;29;19946;-75
2021/03/09 11:17:20;;;;;;;;;;;;;;;29.78;13.64;101778.53;4830063;29;20407;-75
2021/03/09 11:19:48;;;;;;;;;;;;;;;31.68;12.25;101767.53;4828891;29;19944;-75
2021/03/09 11:22:15;;;;;;;;;;;;;;;33.19;10.87;101763.72;4845947;29;20550;-74
2021/03/09 11:24:41;;;;;;;;;;;;;;;33.26;10.65;101764.78;4846815;29;19935;-74
2021/03/09 11:27:09;;;;;;;;;;;;;;;32.51;11.23;101766.31;4852094;29;20018;-74
2021/03/09 11:29:37;;;;;;;;;;;;;;;31.01;12.39;101758.72;4848207;29;19957;-75
2021/03/09 11:32:04;;;;;;;;;;;;;;;29.86;13.15;101758.72;4849075;29;19981;-74
2021/03/09 11:34:32;;;;;;;;;;;;;;;29.95;13.39;101755.16;4845302;29;19962;-74
2021/03/09 11:36:59;;;;;;;;;;;;;;;29.09;13.90;101757.59;4835370;29;19944;-74
2021/03/09 11:39:26;;;;;;;;;;;;;;;29.97;13.21;101750.44;4847076;29;20038;-74
2021/03/09 11:41:54;;;;;;;;;;;;;;;30.29;12.95;101748.38;4829699;29;19937;-75
2021/03/09 11:44:21;;;;;;;;;;;;;;;30.72;12.85;101746.94;4847621;29;19939;-74
2021/03/09 11:46:50;;;;;;;;;;;;;;;30.44;13.01;101741.44;4841229;29;21264;-75
2021/03/09 11:49:17;;;;;;;;;;;;;;;29.44;14.02;101745.38;4843590;29;20650;-74
2021/03/09 11:51:44;;;;;;;;;;;;;;;29.35;13.96;101747.09;4845035;29;19932;-75
2021/03/09 11:54:12;;;;;;;;;;;;;;;28.84;14.46;101738.06;4830691;29;20435;-74
2021/03/09 11:56:39;;;;;;;;;;;;;;;28.47;14.83;101741.28;4837903;29;19943;-74
2021/03/09 11:59:06;;;;;;;;;;;;;;;28.15;15.23;101743.13;4846812;29;20366;-75
2021/03/09 12:01:33;;;;;;;;;;;;;;;28.65;14.96;101734.25;4844055;29;19982;-75
2021/03/09 12:04:01;;;;;;;;;;;;;;;29.50;14.25;101738.50;4841571;29;19937;-75
2021/03/09 12:06:28;;;;;;;;;;;;;;;29.92;13.98;101732.78;4850207;29;20417;-74
2021/03/09 12:08:55;;;;;;;;;;;;;;;30.30;13.34;101723.66;4847091;29;19960;-74
2021/03/09 12:11:23;;;;;;;;;;;;;;;29.71;13.83;101725.59;4843119;29;19935;-74
2021/03/09 12:13:50;;;;;;;;;;;;;;;30.35;13.68;101716.88;4848073;29;19988;-75
2021/03/09 12:16:17;;;;;;;;;;;;;;;31.89;12.42;101725.34;4842672;29;19936;-75
2021/03/09 12:18:44;;;;;;;;;;;;;;;34.91;9.96;101718.00;4832912;29;22019;-74
2021/03/09 12:21:13;;;;;;;;;;;;;;;37.12;8.50;101715.19;4848051;29;19997;-74
2021/03/09 12:23:40;;;;;;;;;;;;;;;38.00;7.83;101714.97;4845406;29;19932;-75
2021/03/09 12:26:09;;;;;;;;;;;;;;;38.57;7.47;101710.22;4849567;29;19935;-74
2021/03/09 12:28:36;;;;;;;;;;;;;;;39.21;7.31;101707.31;4845665;29;19964;-75
2021/03/09 12:31:03;;;;;;;;;;;;;;;40.61;6.54;101711.91;4843016;29;20408;-76
2021/03/09 12:33:30;;;;;;;;;;;;;;;41.67;6.12;101708.72;4844140;29;20496;-75
2021/03/09 12:35:58;;;;;;;;;;;;;;;42.66;5.58;101716.22;4848300;29;19933;-75
2021/03/09 12:38:26;;;;;;;;;;;;;;;42.28;5.77;101707.94;4848588;29;19936;-75
2021/03/09 12:40:53;;;;;;;;;;;;;;;42.35;5.91;101713.41;4848775;29;19936;-75
2021/03/09 12:43:20;;;;;;;;;;;;;;;43.01;5.45;101705.28;4843188;29;19968;-75
2021/03/09 12:45:47;;;;;;;;;;;;;;;42.27;5.98;101714.56;4840344;29;19984;-75
2021/03/09 12:48:14;;;;;;;;;;;;;;;42.70;5.90;101712.81;4846103;29;20958;-75
2021/03/09 12:50:42;;;;;;;;;;;;;;;43.76;5.13;101703.91;4842457;29;20219;-75
2021/03/09 12:53:09;;;;;;;;;;;;;;;44.02;5.14;101706.47;4847319;29;19956;-75
2021/03/09 12:55:37;;;;;;;;;;;;;;;44.15;5.42;101703.41;4831070;29;19928;-75
2021/03/09 12:58:04;;;;;;;;;;;;;;;43.15;5.85;101707.91;4847403;29;19936;-75
2021/03/09 13:00:31;;;;;;;;;;;;;;;44.65;5.12;101715.09;4846370;29;19936;-75
2021/03/09 13:02:58;;;;;;;;;;;;;;;44.99;4.97;101704.88;4845504;29;19932;-75
2021/03/09 13:05:25;;;;;;;;;;;;;;;45.53;4.90;101707.25;4849840;29;19936;-76
2021/03/09 13:07:52;;;;;;;;;;;;;;;45.15;4.87;101702.41;4834773;29;19947;-75
2021/03/09 13:10:19;;;;;;;;;;;;;;;44.85;5.47;101709.09;4850877;29;19932;-75
2021/03/09 13:12:48;;;;;;;;;;;;;;;44.55;5.67;101710.13;4848441;29;19943;-75
2021/03/09 13:15:16;;;;;;;;;;;;;;;44.72;5.41;101701.84;4850287;29;19936;-75
2021/03/09 13:17:43;;;;;;;;;;;;;;;44.87;5.63;101704.94;4832779;29;19936;-75
2021/03/09 13:20:11;;;;;;;;;;;;;;;43.95;6.04;101706.59;4848443;29;19928;-75
2021/03/09 13:22:38;;;;;;;;;;;;;;;43.36;6.17;101700.94;4831379;29;19928;-75
2021/03/09 13:25:08;;;;;;;;;;;;;;;43.39;6.18;101700.47;4847853;29;19991;-76
2021/03/09 13:27:35;;;;;;;;;;;;;;;43.99;5.90;101705.03;4831641;29;19961;-75
2021/03/09 13:30:04;;;;;;;;;;;;;;;44.74;5.91;101703.31;4831558;29;19999;-75
2021/03/09 13:32:31;;;;;;;;;;;;;;;45.16;5.75;101699.34;4832995;29;19943;-75
2021/03/09 13:34:59;;;;;;;;;;;;;;;44.98;5.47;101694.81;4850046;29;19939;-76
2021/03/09 13:37:26;;;;;;;;;;;;;;;44.41;6.05;101701.22;4847213;29;20031;-75
2021/03/09 13:39:53;;;;;;;;;;;;;;;42.96;6.83;101697.66;4831247;29;19943;-76
2021/03/09 13:42:20;;;;;;;;;;;;;;;40.27;8.28;101705.63;4833308;29;20515;-75
2021/03/09 13:44:47;;;;;;;;;;;;;;;39.04;9.33;101704.06;4832275;29;19932;-75
2021/03/09 13:47:15;;;;;;;;;;;;;;;37.14;10.88;101702.03;4837008;29;20019;-75
2021/03/09 13:49:42;;;;;;;;;;;;;;;36.38;11.23;101701.31;4845489;29;19996;-75
2021/03/09 13:52:09;;;;;;;;;;;;;;;35.68;11.60;101710.75;4849819;29;19935;-75
2021/03/09 13:54:41;;;;;;;;;;;;;;;35.27;12.35;101714.66;4844018;29;19936;-75
2021/03/09 13:57:16;;;;;;;;;;;;;;;34.89;12.38;101715.41;4850018;29;19943;-74
2021/03/09 13:59:44;;;;;;;;;;;;;;;34.28;12.77;101705.97;4833369;29;19936;-75
2021/03/09 14:02:12;;;;;;;;;;;;;;;33.77;13.25;101707.06;4847209;29;19932;-75
2021/03/09 14:04:40;;;;;;;;;;;;;;;33.45;13.66;101705.19;4850502;29;19937;-75
2021/03/09 14:07:08;;;;;;;;;;;;;;;33.30;13.62;101705.00;4828982;29;19936;-75
2021/03/09 14:09:35;;;;;;;;;;;;;;;33.33;13.60;101705.53;4830498;29;19936;-75
2021/03/09 14:12:04;;;;;;;;;;;;;;;33.50;13.49;101694.56;4847172;29;19937;-74
2021/03/09 14:14:31;;;;;;;;;;;;;;;34.24;12.76;101687.13;4833018;29;19936;-77
2021/03/09 14:16:58;;;;;;;;;;;;;;;34.14;12.78;101680.13;4854238;29;19940;-75
2021/03/09 14:19:25;;;;;;;;;;;;;;;33.14;13.58;101673.75;4848071;29;20421;-74
2021/03/09 14:21:54;;;;;;;;;;;;;;;32.37;14.31;101671.09;4829568;29;19998;-75
2021/03/09 14:24:21;;;;;;;;;;;;;;;31.97;14.69;101672.53;4845308;29;19951;-75
2021/03/09 14:26:48;;;;;;;;;;;;;;;31.55;14.93;101674.09;4851197;29;19972;-75
2021/03/09 14:29:15;;;;;;;;;;;;;;;31.20;15.46;101675.81;4846231;29;19936;-75
2021/03/09 14:31:45;;;;;;;;;;;;;;;30.76;15.80;101671.91;4849031;29;19936;-74
2021/03/09 14:34:12;;;;;;;;;;;;;;;30.59;16.03;101679.03;4846981;29;20031;-76
2021/03/09 14:37:00;;;;;;;;;;;;;;;30.37;15.93;101669.31;4831995;29;19932;-75
2021/03/09 14:39:27;;;;;;;;;;;;;;;30.33;15.77;101665.19;4846998;29;19936;-75
2021/03/09 14:41:54;;;;;;;;;;;;;;;31.19;15.23;101668.63;4832409;29;19952;-76
2021/03/09 14:44:21;;;;;;;;;;;;;;;31.85;14.27;101661.00;4849853;29;19939;-75
2021/03/09 14:46:48;;;;;;;;;;;;;;;30.59;15.32;101662.66;4848300;29;19988;-76
2021/03/09 14:49:15;;;;;;;;;;;;;;;29.88;15.97;101649.53;4830627;29;20047;-75
2021/03/09 14:51:46;;;;;;;;;;;;;;;29.52;16.25;101660.19;4843915;29;19936;-75
2021/03/09 14:54:14;;;;;;;;;;;;;;;29.57;16.42;101657.88;4847599;29;19952;-75
2021/03/09 14:56:42;;;;;;;;;;;;;;;30.55;15.22;101654.94;4833827;29;19939;-75
2021/03/09 14:59:09;;;;;;;;;;;;;;;30.86;15.06;101651.88;4833492;29;19936;-75
2021/03/09 15:01:36;;;;;;;;;;;;;;;30.18;15.76;101650.31;4848956;29;21091;-75
2021/03/09 15:04:04;;;;;;;;;;;;;;;29.62;15.95;101647.41;4851203;29;20205;-76
2021/03/09 15:06:31;;;;;;;;;;;;;;;29.27;16.40;101654.31;4846186;29;19928;-76
2021/03/09 15:08:58;;;;;;;;;;;;;;;28.80;17.10;101653.06;4849059;29;20484;-74
2021/03/09 15:11:26;;;;;;;;;;;;;;;28.49;17.27;101647.66;4832701;29;19928;-75
2021/03/09 15:13:53;;;;;;;;;;;;;;;28.29;17.23;101654.88;4848052;29;19963;-75
2021/03/09 15:16:21;;;;;;;;;;;;;;;28.09;17.47;101650.34;4832425;29;19936;-75
2021/03/09 15:18:48;;;;;;;;;;;;;;;27.97;17.63;101646.81;4831477;29;19928;-75
2021/03/09 15:21:16;;;;;;;;;;;;;;;27.83;17.68;101639.88;4845787;29;20492;-74
2021/03/09 15:23:43;;;;;;;;;;;;;;;27.70;17.72;101639.19;4847820;29;20552;-75
2021/03/09 15:26:10;;;;;;;;;;;;;;;27.42;18.12;101647.88;4849209;29;20000;-74
2021/03/09 15:28:38;;;;;;;;;;;;;;;27.20;18.42;101651.53;4847698;29;19931;-74
2021/03/09 15:31:05;;;;;;;;;;;;;;;27.02;18.68;101653.91;4846469;29;19932;-75
2021/03/09 15:33:32;;;;;;;;;;;;;;;26.98;18.56;101649.72;4846398;29;19975;-78
2021/03/09 15:35:59;;;;;;;;;;;;;;;27.32;18.26;101639.59;4848989;29;19939;-78
2021/03/09 15:38:27;;;;;;;;;;;;;;;27.37;18.26;101635.63;4848737;29;19932;-76
2021/03/09 15:40:54;;;;;;;;;;;;;;;27.08;18.58;101644.38;4847203;29;20078;-76
2021/03/09 15:43:46;;;;;;;;;;;;;;;26.97;18.47;101643.41;4835660;29;19924;-79
2021/03/09 15:46:40;;;;;;;;;;;;;;;26.57;19.19;101640.38;4845622;29;20062;-83
2021/03/09 16:08:06;;;;;;;;;;;;;;;23.84;22.10;101643.56;5696317;24;20887;-75
2021/03/09 16:10:36;;;;;;;;;;;;;;;23.69;22.08;101643.66;4878604;29;20306;-76
2021/03/09 16:13:06;;;;;;;;;;;;;;;23.51;22.26;101642.22;4878085;29;20368;-74
2021/03/09 16:15:36;;;;;;;;;;;;;;;23.35;22.60;101647.78;4878217;29;19928;-75
2021/03/09 16:18:07;;;;;;;;;;;;;;;23.18;22.56;101646.22;4877634;29;19932;-75
2021/03/09 16:20:38;;;;;;;;;;;;;;;23.04;22.90;101647.09;4878562;29;19931;-75
2021/03/09 16:23:08;;;;;;;;;;;;;;;22.85;23.03;101653.72;4878675;29;20026;-74
2021/03/09 16:25:38;;;;;;;;;;;;;;;22.64;23.15;101653.28;4878231;29;20312;-75
2021/03/09 16:28:07;;;;;;;;;;;;;;;22.51;23.21;101644.22;4859337;29;20366;-75
2021/03/09 16:30:36;;;;;;;;;;;;;;;22.30;23.45;101647.28;4859474;29;20465;-75
2021/03/09 16:33:07;;;;;;;;;;;;;;;22.20;23.52;101651.53;4859296;29;20019;-75
2021/03/09 16:35:36;;;;;;;;;;;;;;;22.09;23.65;101651.31;4860975;29;19936;-75
2021/03/09 16:38:06;;;;;;;;;;;;;;;21.95;23.66;101658.41;4863084;29;20420;-75
2021/03/09 16:40:37;;;;;;;;;;;;;;;21.85;23.69;101654.56;4846340;29;19984;-75
2021/03/09 16:43:08;;;;;;;;;;;;;;;21.64;23.93;101667.50;4862372;29;19935;-75
2021/03/09 16:45:39;;;;;;;;;;;;;;;21.54;24.17;101659.09;4862573;29;20306;-75
2021/03/09 16:48:09;;;;;;;;;;;;;;;21.37;24.19;101671.69;4863013;29;20378;-74
2021/03/09 16:50:40;;;;;;;;;;;;;;;21.22;24.46;101661.81;4863486;29;19936;-73
2021/03/09 16:53:10;;;;;;;;;;;;;;;21.15;24.34;101669.38;4861685;29;20382;-74
2021/03/09 16:55:39;;;;;;;;;;;;;;;21.03;24.60;101667.41;4863060;29;20404;-75
2021/03/09 17:01:53;;;;;;;;;;;;;;;20.77;24.74;101672.41;4862949;29;20336;-75
2021/03/09 17:04:23;;;;;;;;;;;;;;;20.65;25.03;101679.31;4862455;29;20458;-74
2021/03/09 17:06:53;;;;;;;;;;;;;;;20.56;25.00;101680.66;4862834;29;20302;-74
2021/03/09 17:09:22;;;;;;;;;;;;;;;20.47;25.02;101681.19;4862441;29;20412;-73
2021/03/09 17:11:54;;;;;;;;;;;;;;;20.39;25.22;101686.09;4862895;29;20421;-74
2021/03/09 17:14:25;;;;;;;;;;;;;;;20.24;25.34;101694.03;4861707;29;19928;-73
2021/03/09 17:16:55;;;;;;;;;;;;;;;20.17;25.21;101691.75;4862821;29;19932;-74
2021/03/09 17:19:25;;;;;;;;;;;;;;;20.12;25.11;101691.13;4862429;29;19928;-73
2021/03/09 17:25:19;;;;;;;;;;;;;;;19.92;29.16;101687.66;4862173;29;20420;-75
2021/03/09 17:27:50;;;;;;;;;;;;;;;19.87;31.34;101695.97;4861639;29;20291;-76
2021/03/09 17:30:20;;;;;;;;;;;;;;;19.80;31.34;101691.81;4862284;29;20376;-76
2021/03/09 17:32:51;;;;;;;;;;;;;;;19.69;31.58;101699.56;4862596;29;20413;-75
2021/03/09 17:35:21;;;;;;;;;;;;;;;19.69;31.63;101708.47;4862262;29;20015;-76
2021/03/09 17:37:51;;;;;;;;;;;;;;;19.62;31.53;101706.19;4861909;29;19935;-75
2021/03/09 17:40:21;;;;;;;;;;;;;;;19.50;31.79;101705.00;4862119;29;20405;-75
2021/03/09 17:42:52;;;;;;;;;;;;;;;19.43;31.65;101703.56;4859804;29;20307;-75
2021/03/09 17:45:22;;;;;;;;;;;;;;;19.37;32.03;101715.44;4861992;29;20398;-76
2021/03/09 17:47:52;;;;;;;;;;;;;;;19.29;32.18;101710.50;4861005;29;20370;-76
2021/03/09 17:50:38;;;;;;;;;;;;;;;19.33;32.48;101717.44;4862219;29;19999;-75
2021/03/09 17:53:08;;;;;;;;;;;;;;;19.32;32.47;101713.00;4861541;29;20417;-75
2021/03/09 17:55:38;;;;;;;;;;;;;;;19.32;32.73;101713.00;4861604;29;20313;-75
2021/03/09 17:58:09;;;;;;;;;;;;;;;19.30;33.04;101716.72;4861226;29;20075;-75
2021/03/09 18:00:40;;;;;;;;;;;;;;;19.28;33.53;101719.47;4861729;29;19928;-74
2021/03/09 18:03:11;;;;;;;;;;;;;;;19.22;33.00;101719.75;4861818;29;19937;-75
2021/03/09 18:05:42;;;;;;;;;;;;;;;19.13;33.52;101726.44;4861769;29;20111;-74
2021/03/09 18:08:13;;;;;;;;;;;;;;;19.12;35.39;101719.34;4861142;29;20389;-76
2021/03/09 18:10:43;;;;;;;;;;;;;;;19.07;33.79;101730.28;4861569;29;19928;-76
2021/03/09 18:13:14;;;;;;;;;;;;;;;18.88;34.35;101735.63;4861200;29;19951;-73
2021/03/09 18:15:43;;;;;;;;;;;;;;;18.67;34.19;101734.78;4861880;29;20420;-73
2021/03/09 18:18:13;;;;;;;;;;;;;;;18.56;34.17;101735.28;4861439;29;19928;-72
2021/03/09 18:20:44;;;;;;;;;;;;;;;18.39;34.00;101736.03;4861930;29;20362;-74
2021/03/09 18:23:14;;;;;;;;;;;;;;;18.30;33.78;101730.25;4860937;29;20416;-74
2021/03/09 18:25:44;;;;;;;;;;;;;;;18.16;33.72;101729.03;4844723;29;20481;-72
2021/03/09 18:28:15;;;;;;;;;;;;;;;18.07;33.54;101732.97;4860952;29;20239;-73
2021/03/09 18:30:59;;;;;;;;;;;;;;;17.91;33.33;101737.22;4860672;29;19983;-73
2021/03/09 18:33:31;;;;;;;;;;;;;;;17.80;33.11;101740.34;4861405;29;19988;-73
2021/03/09 18:36:02;;;;;;;;;;;;;;;17.70;33.26;101742.56;4861522;29;19944;-73
2021/03/09 18:42:37;;;;;;;;;;;;;;;17.50;32.72;101742.50;4861314;29;19930;-73
2021/03/09 18:45:09;;;;;;;;;;;;;;;17.47;32.50;101738.13;4860850;29;20299;-73
2021/03/09 19:24:17;;;;;;;;;;;;;;;16.16;31.85;101743.91;4877397;29;19980;-73
2021/03/09 19:26:47;;;;;;;;;;;;;;;16.10;31.67;101747.66;4879536;29;20362;-72
2021/03/09 19:29:16;;;;;;;;;;;;;;;15.92;31.84;101743.81;4878433;29;20401;-72
2021/03/09 19:31:46;;;;;;;;;;;;;;;15.87;31.83;101743.09;4878741;29;19947;-73
2021/03/09 19:34:17;;;;;;;;;;;;;;;15.84;31.83;101743.22;4879202;29;20346;-72
2021/03/09 21:38:09;;;;;;;;;;;;;;;12.89;32.79;101775.88;5945922;23;19950;-72
2021/03/09 21:40:40;;;;;;;;;;;;;;;12.84;32.78;101769.78;4824232;29;20252;-72
2021/03/09 21:46:37;;;;;;;;;;;;;;;12.74;32.83;101776.22;4825679;29;19936;-72
2021/03/09 21:52:27;;;;;;;;;;;;;;;12.61;32.77;101765.84;4807096;29;20328;-73
2021/03/09 21:54:57;;;;;;;;;;;;;;;12.59;32.83;101765.00;4807233;29;19929;-73
2021/03/09 21:57:28;;;;;;;;;;;;;;;12.53;32.73;101769.53;4807924;29;20455;-72
2021/03/09 21:59:57;;;;;;;;;;;;;;;12.47;33.02;101765.22;4806959;29;20029;-73
2021/03/09 22:02:26;;;;;;;;;;;;;;;12.39;33.04;101768.03;4806843;29;20476;-72
2021/03/09 22:04:55;;;;;;;;;;;;;;;12.36;33.07;101768.09;4806524;29;20379;-72
2021/03/09 22:07:25;;;;;;;;;;;;;;;12.34;32.93;101763.72;4807273;29;19983;-72
2021/03/09 22:09:54;;;;;;;;;;;;;;;12.29;33.01;101763.78;4806937;29;20479;-72
2021/03/09 22:12:24;;;;;;;;;;;;;;;12.24;33.09;101763.00;4806847;29;20001;-72
2021/03/09 22:14:55;;;;;;;;;;;;;;;12.23;33.04;101764.78;4806566;29;20446;-72
2021/03/09 22:17:24;;;;;;;;;;;;;;;12.21;33.05;101765.72;4807146;29;19975;-73
2021/03/09 22:23:58;;;;;;;;;;;;;;;12.07;33.10;101753.56;4806695;29;19933;-72
2021/03/09 22:26:29;;;;;;;;;;;;;;;11.98;33.19;101760.78;4806671;29;20045;-72
2021/03/09 22:28:58;;;;;;;;;;;;;;;11.93;33.12;101756.41;4806365;29;20394;-72
2021/03/09 22:31:29;;;;;;;;;;;;;;;11.90;33.35;101758.28;4806428;29;19983;-72
2021/03/09 22:34:00;;;;;;;;;;;;;;;11.88;33.29;101749.44;4805608;29;20376;-72
2021/03/09 22:36:30;;;;;;;;;;;;;;;11.84;33.32;101755.72;4806536;29;20368;-72
2021/03/09 22:39:00;;;;;;;;;;;;;;;11.77;33.35;101755.81;4806260;29;20453;-72
2021/03/09 22:41:29;;;;;;;;;;;;;;;11.71;33.54;101758.53;4806605;29;20395;-72
2021/03/09 22:43:59;;;;;;;;;;;;;;;11.65;33.52;101763.06;4805782;29;19929;-72
2021/03/09 22:46:29;;;;;;;;;;;;;;;11.62;33.45;101766.63;4806361;29;19935;-72
2021/03/09 22:49:03;;;;;;;;;;;;;;;11.56;33.89;101764.09;4805986;29;20292;-72
2021/03/09 22:52:10;;;;;;;;;;;;;;;11.52;33.67;101771.22;4806549;29;19936;-72
2021/03/09 22:54:40;;;;;;;;;;;;;;;11.50;33.39;101777.44;4806102;29;20396;-72